createdAt,value
2023-01-25T00:00:54.260Z,1.90
2023-01-25T00:03:22.316Z,1.90
2023-01-25T00:05:50.295Z,1.90
2023-01-25T00:08:21.124Z,1.90
2023-01-25T00:10:52.550Z,1.90
2023-01-25T00:13:20.511Z,1.90
2023-01-25T00:15:48.453Z,1.90
2023-01-25T00:18:16.414Z,1.90
2023-01-25T00:20:44.382Z,1.90
2023-01-25T00:23:12.325Z,1.90
2023-01-25T00:25:44.822Z,1.90
2023-01-25T00:28:12.957Z,1.90
2023-01-25T00:30:42.233Z,1.90
2023-01-25T00:33:44.922Z,1.90
2023-01-25T00:36:35.306Z,1.90
2023-01-25T00:39:03.288Z,1.90
2023-01-25T00:41:32.625Z,1.90
2023-01-25T00:44:01.322Z,1.90
2023-01-25T00:46:29.369Z,1.90
2023-01-25T00:48:57.626Z,1.90
2023-01-25T00:51:25.821Z,2.00
2023-01-25T00:53:54.065Z,1.90
2023-01-25T00:56:22.346Z,1.90
2023-01-25T00:58:51.687Z,2.00
2023-01-25T01:01:19.690Z,1.90
2023-01-25T01:03:47.682Z,1.90
2023-01-25T01:06:15.718Z,1.90
2023-01-25T01:08:44.066Z,1.90
2023-01-25T01:11:13.547Z,1.90
2023-01-25T01:13:42.105Z,1.90
2023-01-25T01:16:13.580Z,1.90
2023-01-25T01:18:44.163Z,1.90
2023-01-25T01:21:13.186Z,1.90
2023-01-25T01:23:41.947Z,1.90
2023-01-25T01:26:13.540Z,1.90
2023-01-25T01:28:41.819Z,1.90
2023-01-25T01:31:13.643Z,1.90
2023-01-25T01:33:41.736Z,1.90
2023-01-25T01:36:10.584Z,1.90
2023-01-25T01:38:38.557Z,1.90
2023-01-25T01:41:06.889Z,1.90
2023-01-25T01:43:35.377Z,1.90
2023-01-25T01:46:04.435Z,1.90
2023-01-25T01:48:37.724Z,1.90
2023-01-25T01:51:14.374Z,1.90
2023-01-25T01:53:45.461Z,1.90
2023-01-25T01:56:22.300Z,1.90
2023-01-25T01:58:53.750Z,1.90
2023-01-25T02:01:21.735Z,1.90
2023-01-25T02:03:52.649Z,1.90
2023-01-25T02:06:29.935Z,1.90
2023-01-25T02:08:59.365Z,1.90
2023-01-25T02:11:28.893Z,1.90
2023-01-25T02:13:59.763Z,1.90
2023-01-25T02:16:29.393Z,1.90
2023-01-25T02:19:02.122Z,1.90
2023-01-25T02:21:37.152Z,1.90
2023-01-25T02:24:11.236Z,1.90
2023-01-25T02:26:41.050Z,1.90
2023-01-25T02:29:10.649Z,1.90
2023-01-25T02:31:38.753Z,1.90
2023-01-25T02:34:06.778Z,1.90
2023-01-25T02:36:36.236Z,1.90
2023-01-25T02:39:07.862Z,1.90
2023-01-25T02:41:41.216Z,2.00
2023-01-25T02:44:12.487Z,1.90
2023-01-25T02:46:42.169Z,1.90
2023-01-25T02:49:11.542Z,1.90
2023-01-25T02:51:42.369Z,1.90
2023-01-25T02:54:13.090Z,1.90
2023-01-25T02:56:42.502Z,1.90
2023-01-25T02:59:13.180Z,1.90
2023-01-25T03:01:42.996Z,1.90
2023-01-25T03:04:11.035Z,1.90
2023-01-25T03:06:40.401Z,1.90
2023-01-25T03:09:10.520Z,2.00
2023-01-25T03:11:38.721Z,1.90
2023-01-25T03:14:08.135Z,1.90
2023-01-25T03:16:36.150Z,1.90
2023-01-25T03:19:04.176Z,1.90
2023-01-25T03:21:32.160Z,2.00
2023-01-25T03:24:02.195Z,1.90
2023-01-25T03:26:31.274Z,1.90
2023-01-25T03:28:59.251Z,1.90
2023-01-25T03:31:28.633Z,1.90
2023-01-25T03:33:56.610Z,1.90
2023-01-25T03:36:24.631Z,1.90
2023-01-25T03:38:52.643Z,1.90
2023-01-25T03:41:20.649Z,1.90
2023-01-25T03:43:48.613Z,1.90
2023-01-25T03:46:16.599Z,2.00
2023-01-25T03:48:45.932Z,1.90
2023-01-25T03:51:13.918Z,1.90
2023-01-25T03:53:41.881Z,1.90
2023-01-25T03:56:11.983Z,2.00
2023-01-25T03:58:41.138Z,1.90
2023-01-25T04:01:10.128Z,1.90
2023-01-25T04:03:38.341Z,1.90
2023-01-25T04:06:10.960Z,1.90
2023-01-25T04:08:39.051Z,1.90
2023-01-25T04:11:08.692Z,2.00
2023-01-25T04:13:37.774Z,1.90
2023-01-25T04:16:06.483Z,1.90
2023-01-25T04:18:34.552Z,1.90
2023-01-25T04:21:02.498Z,1.90
2023-01-25T04:23:31.966Z,2.00
2023-01-25T04:26:01.508Z,2.00
2023-01-25T04:28:30.185Z,2.00
2023-01-25T04:30:58.665Z,2.00
2023-01-25T04:33:27.061Z,2.00
2023-01-25T04:35:55.037Z,1.90
2023-01-25T04:38:23.244Z,2.00
2023-01-25T04:40:53.621Z,2.00
2023-01-25T04:43:22.980Z,2.00
2023-01-25T04:45:50.970Z,2.00
2023-01-25T04:48:19.296Z,2.00
2023-01-25T04:50:47.623Z,2.00
2023-01-25T04:53:15.592Z,2.00
2023-01-25T04:55:47.462Z,2.00
2023-01-25T04:58:17.008Z,2.00
2023-01-25T05:00:45.085Z,2.00
2023-01-25T05:03:13.064Z,2.00
2023-01-25T05:05:44.296Z,2.00
2023-01-25T05:08:12.252Z,2.00
2023-01-25T05:10:40.235Z,2.00
2023-01-25T05:13:08.202Z,2.00
2023-01-25T05:15:37.587Z,2.00
2023-01-25T05:18:05.964Z,2.00
2023-01-25T05:20:33.955Z,2.00
2023-01-25T05:23:01.954Z,2.00
2023-01-25T05:25:49.772Z,2.00
2023-01-25T05:28:17.758Z,2.00
2023-01-25T05:30:47.173Z,2.00
2023-01-25T05:33:15.153Z,2.00
2023-01-25T05:35:43.403Z,2.00
2023-01-25T05:38:11.381Z,2.00
2023-01-25T05:40:39.436Z,2.00
2023-01-25T05:43:07.490Z,2.00
2023-01-25T05:45:35.440Z,2.00
2023-01-25T05:48:04.980Z,2.00
2023-01-25T05:50:32.962Z,2.00
2023-01-25T05:53:00.918Z,2.00
2023-01-25T05:55:31.104Z,2.00
2023-01-25T05:57:59.068Z,2.00
2023-01-25T06:00:27.142Z,2.00
2023-01-25T06:02:56.874Z,2.00
2023-01-25T06:05:26.329Z,2.00
2023-01-25T06:07:54.341Z,2.00
2023-01-25T06:10:22.300Z,2.00
2023-01-25T06:12:50.281Z,2.00
2023-01-25T06:15:18.375Z,2.00
2023-01-25T06:17:48.410Z,2.00
2023-01-25T06:20:16.881Z,2.00
2023-01-25T06:22:50.779Z,2.00
2023-01-25T06:25:18.921Z,2.00
2023-01-25T06:27:49.128Z,2.00
2023-01-25T06:30:17.662Z,2.00
2023-01-25T06:32:45.648Z,2.00
2023-01-25T06:35:13.609Z,2.00
2023-01-25T06:37:41.597Z,2.00
2023-01-25T06:40:12.531Z,2.00
2023-01-25T06:42:40.488Z,2.00
2023-01-25T06:45:10.042Z,2.00
2023-01-25T06:47:38.201Z,2.00
2023-01-25T06:50:07.012Z,2.00
2023-01-25T06:52:36.402Z,2.00
2023-01-25T06:55:04.709Z,2.00
2023-01-25T06:57:34.098Z,2.00
2023-01-25T07:00:02.253Z,1.90
2023-01-25T07:02:30.303Z,1.90
2023-01-25T07:04:58.349Z,1.90
2023-01-25T07:07:26.422Z,1.90
2023-01-25T07:09:54.419Z,1.90
2023-01-25T07:12:22.773Z,1.90
2023-01-25T07:14:52.097Z,1.90
2023-01-25T07:17:20.040Z,1.90
2023-01-25T07:19:49.496Z,1.90
2023-01-25T07:22:17.948Z,1.90
2023-01-25T07:24:50.601Z,1.90
2023-01-25T07:27:18.805Z,1.90
2023-01-25T07:29:46.749Z,1.90
2023-01-25T07:32:16.117Z,1.90
2023-01-25T07:34:44.307Z,1.90
2023-01-25T07:37:12.274Z,1.90
2023-01-25T07:39:48.125Z,1.90
2023-01-25T07:42:16.515Z,1.90
2023-01-25T07:44:44.487Z,1.90
2023-01-25T07:47:12.444Z,1.90
2023-01-25T07:49:41.799Z,1.90
2023-01-25T07:52:09.798Z,1.90
2023-01-25T07:54:37.907Z,1.90
2023-01-25T07:57:05.854Z,2.00
2023-01-25T07:59:33.861Z,2.00
2023-01-25T08:02:01.795Z,2.00
2023-01-25T08:04:30.536Z,2.00
2023-01-25T08:07:01.614Z,2.00
2023-01-25T08:09:29.687Z,2.00
2023-01-25T08:11:57.655Z,2.00
2023-01-25T08:14:25.780Z,2.00
2023-01-25T08:16:53.777Z,2.00
2023-01-25T08:19:21.960Z,2.00
2023-01-25T08:21:50.006Z,2.00
2023-01-25T08:24:20.897Z,2.10
2023-01-25T08:26:49.348Z,2.10
2023-01-25T08:29:19.982Z,2.10
2023-01-25T08:31:48.025Z,2.20
2023-01-25T08:34:16.198Z,2.20
2023-01-25T08:36:44.230Z,2.20
2023-01-25T08:39:13.692Z,2.20
2023-01-25T08:41:43.065Z,2.20
2023-01-25T08:44:11.570Z,2.30
2023-01-25T08:46:39.695Z,2.30
2023-01-25T08:49:09.180Z,2.30
2023-01-25T08:51:37.166Z,2.40
2023-01-25T08:54:05.995Z,2.40
2023-01-25T08:56:34.472Z,2.40
2023-01-25T08:59:03.833Z,2.40
2023-01-25T09:01:32.028Z,2.50
2023-01-25T09:04:00.129Z,2.40
2023-01-25T09:06:30.892Z,2.50
2023-01-25T09:09:00.051Z,2.50
2023-01-25T09:11:28.079Z,2.60
2023-01-25T09:13:56.079Z,2.60
2023-01-25T09:16:29.638Z,2.70
2023-01-25T09:18:58.689Z,2.70
2023-01-25T09:21:26.760Z,2.70
2023-01-25T09:24:10.725Z,2.70
2023-01-25T09:26:43.000Z,2.80
2023-01-25T09:29:14.314Z,2.80
2023-01-25T09:31:44.502Z,2.80
2023-01-25T09:34:13.895Z,2.80
2023-01-25T09:36:42.026Z,2.80
2023-01-25T09:39:12.104Z,2.80
2023-01-25T09:42:20.509Z,2.90
2023-01-25T09:45:06.470Z,2.90
2023-01-25T09:47:44.258Z,2.90
2023-01-25T09:50:26.546Z,2.90
2023-01-25T09:53:17.690Z,2.90
2023-01-25T09:55:51.024Z,2.90
2023-01-25T09:58:22.369Z,2.90
2023-01-25T10:00:53.614Z,3.00
2023-01-25T10:03:29.938Z,2.90
2023-01-25T10:06:00.829Z,3.00
2023-01-25T10:08:33.131Z,3.00
2023-01-25T10:11:08.666Z,2.90
2023-01-25T10:13:36.684Z,3.00
2023-01-25T10:16:14.618Z,3.00
2023-01-25T10:19:00.828Z,3.10
2023-01-25T10:21:33.500Z,3.20
2023-01-25T10:24:52.342Z,3.20
2023-01-25T10:27:29.960Z,3.20
2023-01-25T10:30:00.898Z,3.20
2023-01-25T10:32:32.340Z,3.20
2023-01-25T10:35:22.755Z,3.30
2023-01-25T10:37:54.766Z,3.30
2023-01-25T10:40:24.757Z,3.40
2023-01-25T10:42:59.308Z,3.40
2023-01-25T10:45:29.974Z,3.40
2023-01-25T10:48:04.795Z,3.40
2023-01-25T10:50:52.059Z,3.40
2023-01-25T10:53:31.714Z,3.50
2023-01-25T10:56:19.220Z,3.50
2023-01-25T10:58:49.358Z,3.50
2023-01-25T11:01:28.876Z,3.60
2023-01-25T11:03:57.465Z,3.60
2023-01-25T11:06:36.116Z,3.60
2023-01-25T11:09:38.120Z,3.60
2023-01-25T11:12:17.347Z,3.60
2023-01-25T11:14:45.748Z,3.60
2023-01-25T11:17:25.648Z,3.60
2023-01-25T11:20:08.892Z,3.60
2023-01-25T11:22:39.143Z,3.60
2023-01-25T11:25:29.013Z,3.60
2023-01-25T11:28:12.758Z,3.50
2023-01-25T11:30:40.861Z,3.50
2023-01-25T11:33:12.708Z,3.50
2023-01-25T11:35:53.626Z,3.50
2023-01-25T11:38:24.489Z,3.50
2023-01-25T11:41:01.851Z,3.50
2023-01-25T11:43:48.886Z,3.50
2023-01-25T11:46:48.628Z,3.50
2023-01-25T11:49:28.834Z,3.50
2023-01-25T11:52:06.509Z,3.50
2023-01-25T11:54:49.976Z,3.50
2023-01-25T11:57:35.144Z,3.50
2023-01-25T12:00:23.023Z,3.50
2023-01-25T12:03:16.918Z,3.50
2023-01-25T12:05:56.084Z,3.50
2023-01-25T12:08:43.149Z,3.50
2023-01-25T12:11:21.670Z,3.40
2023-01-25T12:13:58.910Z,3.40
2023-01-25T12:16:39.089Z,3.40
2023-01-25T12:19:35.645Z,3.40
2023-01-25T12:22:17.904Z,3.30
2023-01-25T12:24:55.239Z,3.20
2023-01-25T12:27:37.354Z,3.30
2023-01-25T12:30:15.745Z,3.20
2023-01-25T12:32:49.994Z,3.30
2023-01-25T12:35:35.392Z,3.20
2023-01-25T12:38:06.822Z,3.20
2023-01-25T12:40:47.799Z,3.30
2023-01-25T12:43:22.653Z,3.30
2023-01-25T12:45:52.718Z,3.30
2023-01-25T12:48:24.788Z,3.40
2023-01-25T12:50:57.074Z,3.40
2023-01-25T12:53:28.323Z,3.40
2023-01-25T12:55:58.156Z,3.40
2023-01-25T12:58:38.036Z,3.40
2023-01-25T13:01:13.624Z,3.40
2023-01-25T13:03:54.544Z,3.30
2023-01-25T13:06:30.575Z,3.30
2023-01-25T13:09:05.194Z,3.30
2023-01-25T13:11:36.010Z,3.30
2023-01-25T13:14:40.770Z,3.30
2023-01-25T13:17:22.391Z,3.30
2023-01-25T13:19:51.106Z,3.30
2023-01-25T13:22:54.943Z,3.30
2023-01-25T13:25:24.296Z,3.30
2023-01-25T13:27:52.655Z,3.30
2023-01-25T13:30:33.376Z,3.30
2023-01-25T13:33:07.594Z,3.30
2023-01-25T13:35:41.526Z,3.30
2023-01-25T13:38:35.729Z,3.20
2023-01-25T13:41:13.081Z,3.20
2023-01-25T13:43:43.288Z,3.20
2023-01-25T13:46:15.182Z,3.20
2023-01-25T13:48:56.683Z,3.20
2023-01-25T13:51:25.957Z,3.20
2023-01-25T13:53:58.545Z,3.20
2023-01-25T13:56:29.937Z,3.20
2023-01-25T13:58:58.266Z,3.20
2023-01-25T14:01:27.102Z,3.20
2023-01-25T14:04:01.674Z,3.10
2023-01-25T14:06:31.596Z,3.10
2023-01-25T14:09:03.023Z,3.10
2023-01-25T14:11:34.497Z,3.00
2023-01-25T14:14:04.616Z,3.00
2023-01-25T14:16:33.179Z,3.00
2023-01-25T14:19:24.435Z,2.90
2023-01-25T14:22:10.750Z,2.90
2023-01-25T14:24:38.898Z,2.90
2023-01-25T14:27:09.240Z,2.80
2023-01-25T14:29:40.306Z,2.80
2023-01-25T14:32:08.320Z,2.70
2023-01-25T14:34:37.660Z,2.70
2023-01-25T14:37:17.261Z,2.70
2023-01-25T14:39:46.787Z,2.60
2023-01-25T14:42:15.882Z,2.70
2023-01-25T14:44:44.448Z,2.70
2023-01-25T14:47:30.770Z,2.70
2023-01-25T14:50:34.416Z,2.70
2023-01-25T14:53:10.472Z,2.60
2023-01-25T14:55:38.872Z,2.60
2023-01-25T14:58:08.607Z,2.60
2023-01-25T15:00:39.641Z,2.60
2023-01-25T15:03:15.357Z,2.60
2023-01-25T15:05:47.526Z,2.60
2023-01-25T15:08:20.055Z,2.60
2023-01-25T15:10:52.761Z,2.60
2023-01-25T15:13:23.338Z,2.50
2023-01-25T15:15:53.313Z,2.60
2023-01-25T15:18:43.871Z,2.60
2023-01-25T15:21:17.181Z,2.50
2023-01-25T15:23:47.305Z,2.50
2023-01-25T15:26:19.914Z,2.50
2023-01-25T15:28:50.846Z,2.50
2023-01-25T15:31:20.787Z,2.40
2023-01-25T15:33:48.925Z,2.50
2023-01-25T15:36:21.344Z,2.40
2023-01-25T15:38:49.580Z,2.40
2023-01-25T15:41:21.518Z,2.30
2023-01-25T15:43:52.073Z,2.40
2023-01-25T15:46:22.785Z,2.30
2023-01-25T15:48:51.899Z,2.30
2023-01-25T15:51:22.364Z,2.30
2023-01-25T15:53:50.466Z,2.30
2023-01-25T15:56:21.547Z,2.30
2023-01-25T15:58:52.787Z,2.30
2023-01-25T16:01:21.080Z,2.30
2023-01-25T16:03:52.294Z,2.30
2023-01-25T16:06:34.415Z,2.30
2023-01-25T16:09:04.644Z,2.20
2023-01-25T16:11:32.622Z,2.30
2023-01-25T16:14:00.558Z,2.30
2023-01-25T16:16:28.631Z,2.20
2023-01-25T16:18:56.623Z,2.20
2023-01-25T16:21:26.205Z,2.20
2023-01-25T16:23:54.197Z,2.20
2023-01-25T16:26:26.246Z,2.20
2023-01-25T16:28:54.455Z,2.20
2023-01-25T16:31:32.576Z,2.20
2023-01-25T16:34:01.666Z,2.20
2023-01-25T16:36:31.732Z,2.20
2023-01-25T16:39:09.694Z,2.20
2023-01-25T16:41:38.438Z,2.20
2023-01-25T16:44:08.363Z,2.20
2023-01-25T16:46:36.371Z,2.20
2023-01-25T16:49:06.838Z,2.20
2023-01-25T16:51:38.123Z,2.20
2023-01-25T16:54:06.162Z,2.20
2023-01-25T16:56:37.259Z,2.20
2023-01-25T16:59:09.279Z,2.10
2023-01-25T17:01:39.937Z,2.10
2023-01-25T17:04:08.223Z,2.10
2023-01-25T17:06:39.821Z,2.10
2023-01-25T17:09:21.980Z,2.10
2023-01-25T17:11:51.257Z,2.10
2023-01-25T17:14:23.675Z,2.10
2023-01-25T17:16:53.462Z,2.20
2023-01-25T17:19:22.258Z,2.10
2023-01-25T17:21:51.597Z,2.10
2023-01-25T17:24:22.306Z,2.10
2023-01-25T17:26:50.776Z,2.10
2023-01-25T17:29:18.845Z,2.10
2023-01-25T17:31:49.531Z,2.00
2023-01-25T17:34:19.613Z,2.00
2023-01-25T17:36:48.138Z,2.00
2023-01-25T17:39:20.424Z,2.00
2023-01-25T17:41:50.235Z,2.00
2023-01-25T17:44:21.266Z,2.00
2023-01-25T17:46:50.558Z,2.00
2023-01-25T17:49:19.039Z,2.00
2023-01-25T17:51:47.629Z,2.00
2023-01-25T17:54:17.475Z,2.00
2023-01-25T17:56:45.809Z,2.10
2023-01-25T17:59:13.763Z,2.00
2023-01-25T18:01:43.649Z,2.00
2023-01-25T18:04:13.138Z,2.00
2023-01-25T18:06:41.203Z,2.00
2023-01-25T18:09:09.193Z,2.00
2023-01-25T18:11:40.293Z,2.00
2023-01-25T18:14:10.489Z,1.90
2023-01-25T18:16:40.081Z,2.00
2023-01-25T18:19:09.032Z,2.00
2023-01-25T18:21:38.235Z,2.00
2023-01-25T18:24:22.940Z,2.00
2023-01-25T18:26:55.166Z,2.00
2023-01-25T18:29:45.425Z,1.90
2023-01-25T18:32:13.659Z,1.90
2023-01-25T18:34:41.726Z,1.90
2023-01-25T18:37:20.353Z,1.90
2023-01-25T18:39:49.820Z,1.80
2023-01-25T18:42:22.806Z,1.80
2023-01-25T18:44:52.693Z,1.80
2023-01-25T18:47:22.420Z,1.80
2023-01-25T18:49:53.937Z,1.90
2023-01-25T18:52:24.046Z,1.90
2023-01-25T18:54:52.597Z,1.90
2023-01-25T18:57:22.154Z,1.80
2023-01-25T18:59:50.394Z,1.80
2023-01-25T19:02:20.244Z,1.80
2023-01-25T19:04:48.220Z,1.80
2023-01-25T19:07:16.263Z,1.70
2023-01-25T19:09:44.562Z,1.70
2023-01-25T19:12:12.844Z,1.70
2023-01-25T19:14:42.187Z,1.70
2023-01-25T19:17:10.647Z,1.70
2023-01-25T19:19:41.415Z,1.70
2023-01-25T19:22:09.384Z,1.70
2023-01-25T19:24:37.415Z,1.70
2023-01-25T19:27:08.129Z,1.70
2023-01-25T19:29:36.793Z,1.70
2023-01-25T19:32:06.483Z,1.70
2023-01-25T19:34:34.589Z,1.70
2023-01-25T19:37:02.592Z,1.70
2023-01-25T19:39:31.000Z,1.70
2023-01-25T19:41:59.337Z,1.70
2023-01-25T19:44:27.587Z,1.70
2023-01-25T19:46:55.746Z,1.60
2023-01-25T19:49:31.135Z,1.60
2023-01-25T19:51:59.115Z,1.60
2023-01-25T19:54:27.435Z,1.60
2023-01-25T19:56:56.150Z,1.60
2023-01-25T19:59:25.664Z,1.60
2023-01-25T20:01:54.116Z,1.50
2023-01-25T20:04:24.804Z,1.50
2023-01-25T20:06:53.207Z,1.50
2023-01-25T20:09:24.861Z,1.50
2023-01-25T20:11:55.255Z,1.50
2023-01-25T20:14:23.261Z,1.50
2023-01-25T20:16:52.658Z,1.50
2023-01-25T20:19:23.803Z,1.50
2023-01-25T20:21:51.963Z,1.40
2023-01-25T20:24:21.741Z,1.40
2023-01-25T20:26:51.197Z,1.40
2023-01-25T20:29:19.758Z,1.40
2023-01-25T20:31:48.427Z,1.50
2023-01-25T20:34:18.859Z,1.50
2023-01-25T20:36:49.170Z,1.50
2023-01-25T20:39:20.751Z,1.50
2023-01-25T20:41:53.460Z,1.50
2023-01-25T20:44:21.817Z,1.50
2023-01-25T20:46:52.548Z,1.50
2023-01-25T20:49:23.807Z,1.50
2023-01-25T20:51:53.182Z,1.50
2023-01-25T20:54:21.685Z,1.50
2023-01-25T20:56:50.371Z,1.30
2023-01-25T20:59:19.247Z,1.30
2023-01-25T21:01:47.524Z,1.30
2023-01-25T21:04:15.541Z,1.30
2023-01-25T21:06:43.513Z,1.30
2023-01-25T21:09:13.448Z,1.40
2023-01-25T21:11:41.450Z,1.40
2023-01-25T21:14:09.542Z,1.40
2023-01-25T21:16:37.639Z,1.40
2023-01-25T21:19:07.906Z,1.40
2023-01-25T21:21:35.932Z,1.40
2023-01-25T21:24:05.376Z,1.40
2023-01-25T21:26:38.167Z,1.30
2023-01-25T21:29:07.228Z,1.30
2023-01-25T21:31:36.703Z,1.30
2023-01-25T21:34:06.104Z,1.30
2023-01-25T21:36:34.228Z,1.30
2023-01-25T21:39:02.232Z,1.30
2023-01-25T21:41:33.323Z,1.40
2023-01-25T21:44:20.590Z,1.40
2023-01-25T21:47:15.763Z,1.40
2023-01-25T21:49:54.006Z,1.30
2023-01-25T21:52:21.960Z,1.30
2023-01-25T21:54:50.248Z,1.30
2023-01-25T21:57:18.239Z,1.30
2023-01-25T21:59:48.767Z,1.30
2023-01-25T22:02:17.020Z,1.30
2023-01-25T22:04:45.040Z,1.30
2023-01-25T22:07:13.124Z,1.30
2023-01-25T22:09:41.107Z,1.20
2023-01-25T22:12:12.346Z,1.20
2023-01-25T22:14:40.611Z,1.20
2023-01-25T22:17:09.973Z,1.20
2023-01-25T22:19:38.311Z,1.20
2023-01-25T22:22:06.280Z,1.20
2023-01-25T22:24:34.339Z,1.20
2023-01-25T22:27:14.693Z,1.20
2023-01-25T22:29:42.628Z,1.20
2023-01-25T22:32:12.154Z,1.10
2023-01-25T22:34:40.107Z,1.10
2023-01-25T22:37:10.455Z,1.10
2023-01-25T22:39:38.413Z,1.10
2023-01-25T22:42:06.574Z,1.00
2023-01-25T22:44:34.558Z,1.10
2023-01-25T22:47:02.550Z,1.10
2023-01-25T22:49:31.867Z,1.10
2023-01-25T22:52:00.140Z,1.10
2023-01-25T22:54:28.123Z,1.10
2023-01-25T22:56:56.091Z,1.10
2023-01-25T22:59:24.091Z,1.10
2023-01-25T23:01:52.066Z,1.10
2023-01-25T23:04:23.395Z,1.00
2023-01-25T23:07:02.442Z,1.00
2023-01-25T23:09:30.571Z,1.00
2023-01-25T23:11:58.816Z,1.00
2023-01-25T23:14:44.076Z,1.00
2023-01-25T23:17:29.671Z,1.00
2023-01-25T23:19:57.633Z,1.00
2023-01-25T23:22:27.800Z,1.00
2023-01-25T23:24:57.032Z,0.90
2023-01-25T23:27:25.082Z,1.00
2023-01-25T23:29:53.079Z,0.90
2023-01-25T23:32:21.464Z,1.00
2023-01-25T23:34:53.083Z,1.00
2023-01-25T23:37:22.429Z,1.00
2023-01-25T23:39:52.029Z,1.00
2023-01-25T23:42:20.274Z,1.00
2023-01-25T23:44:48.228Z,0.90
2023-01-25T23:47:16.631Z,0.90
2023-01-25T23:49:44.684Z,1.00
2023-01-25T23:52:12.651Z,1.00
2023-01-25T23:54:40.603Z,1.00
2023-01-25T23:57:09.924Z,1.00
2023-01-25T23:59:38.476Z,1.00
